Ana Sayfa
METAR-TAF:

METAR-TAF

Havaalanları :

Campo, Kaliforniya, Amerika Birleşik Devletleri

Enlem: 32-37-34N, Boylam: 116-28-06W, yükseklik: 807 m

Güncel hava durumu gözlemi

Rapor saat 07:52 UTC de 35 dakika önce yapıldı.
Sakin rüzgar
Sıcaklık 13°C
Nem 72%
Basınç 1021 hPa

METAR: KCZZ 070752Z AUTO 00000KT 13/08 A3015 RMK AO1 SLP188 T01280078 401830072

Saat: 00:27 (08:27 UTC)


TAF: eksik

4.000'den fazla havaalanı için hava durumu gözlemleri ve tahminleri (METAR ve TAF raporları).

Kullanılabilir istasyonlar harita üzerinde sarı ve kırmızı noktalarla gösterilir.

İstasyonun adını görmek için fareyi noktanın üzerinde gezdirin.

Sonrasında hava gözlem ve tahminlerini görmek için tıklayın.

Haritayı değiştirmek için: yaklaştırmak için siyah artı işaretli yeşil düğmeye ve uzaklaştırmak için de eksi işaretli düğmeye hızla tıklayın; bitişik haritalar için yeşil okları kullanın.


METAR-TAF: